Time;durP1;ratioP1;P1;durP2;ratioP2;P2;SDS_P1;SDS_P2;PMS_P1;PMS_P2;Temp;Humidity;BMP_temperature;BMP_pressure;BME280_temperature;BME280_humidity;BME280_pressure;Samples;Min_cycle;Max_cycle;Signal;HPM_P1;HPM_P2
2023/03/27 00:01:00;;;;;;;8.53;2.33;;;3.30;99.90;;;;;;5081686;28;20243;-71
2023/03/27 00:03:28;;;;;;;9.87;2.10;;;3.30;99.90;;;;;;5078982;28;20326;-72
2023/03/27 00:06:06;;;;;;;8.63;2.43;;;3.30;99.90;;;;;;5080353;28;20247;-71
2023/03/27 00:08:35;;;;;;;8.60;2.10;;;3.30;99.90;;;;;;5079336;28;20214;-71
2023/03/27 00:11:02;;;;;;;11.43;2.33;;;3.30;99.90;;;;;;5083171;28;20235;-72
2023/03/27 00:13:30;;;;;;;8.10;2.33;;;3.30;99.90;;;;;;5082488;28;20237;-72
2023/03/27 00:15:57;;;;;;;7.33;2.23;;;3.30;99.90;;;;;;5081057;28;20239;-73
2023/03/27 00:18:25;;;;;;;11.03;2.63;;;3.30;99.90;;;;;;5085461;28;20234;-71
2023/03/27 00:20:52;;;;;;;9.90;2.40;;;3.30;99.90;;;;;;5080001;28;20255;-72
2023/03/27 00:23:19;;;;;;;8.23;2.53;;;3.30;99.90;;;;;;5079276;28;20296;-74
2023/03/27 00:25:48;;;;;;;4.97;2.50;;;3.30;99.90;;;;;;5076832;28;20723;-73
2023/03/27 00:28:16;;;;;;;6.17;2.10;;;3.30;99.90;;;;;;5085466;28;20200;-72
2023/03/27 00:30:43;;;;;;;9.50;2.00;;;3.20;99.90;;;;;;5079717;28;20584;-72
2023/03/27 00:33:11;;;;;;;6.37;2.03;;;3.30;99.90;;;;;;5081778;28;20223;-72
2023/03/27 00:35:43;;;;;;;9.83;2.00;;;3.20;99.90;;;;;;5070275;28;20237;-71
2023/03/27 00:38:10;;;;;;;6.47;2.03;;;3.20;99.90;;;;;;5080236;28;20682;-72
2023/03/27 00:40:37;;;;;;;5.87;2.10;;;3.20;99.90;;;;;;5081662;28;20314;-72
2023/03/27 00:43:33;;;;;;;5.37;2.30;;;3.20;99.90;;;;;;5078560;28;20201;-72
2023/03/27 00:46:15;;;;;;;7.13;2.20;;;3.20;99.90;;;;;;5079624;28;20206;-73
2023/03/27 00:48:46;;;;;;;2.80;1.90;;;3.10;99.90;;;;;;5082246;28;20252;-73
2023/03/27 00:51:14;;;;;;;8.03;2.20;;;3.10;99.90;;;;;;5079723;28;20281;-72
2023/03/27 00:53:41;;;;;;;6.13;2.20;;;3.10;99.90;;;;;;5079189;28;20245;-72
2023/03/27 00:56:09;;;;;;;7.30;1.90;;;3.10;99.90;;;;;;5086863;28;20215;-73
2023/03/27 00:58:41;;;;;;;8.57;2.53;;;3.10;99.90;;;;;;5078894;28;20619;-72
2023/03/27 01:01:11;;;;;;;5.03;1.80;;;3.10;99.90;;;;;;5079175;28;20208;-72
2023/03/27 01:03:39;;;;;;;7.73;1.93;;;3.10;99.90;;;;;;5080967;28;20238;-73
2023/03/27 01:06:08;;;;;;;8.83;2.37;;;3.10;99.90;;;;;;5081703;28;20292;-72
2023/03/27 01:08:36;;;;;;;11.23;2.60;;;3.10;99.90;;;;;;5084320;28;20237;-72
2023/03/27 01:11:24;;;;;;;8.77;2.00;;;3.10;99.90;;;;;;5082499;28;20208;-72
2023/03/27 01:14:42;;;;;;;11.10;2.20;;;3.10;99.90;;;;;;5089191;28;20300;-72
2023/03/27 01:17:15;;;;;;;9.20;1.80;;;3.00;99.90;;;;;;5041367;28;20229;-72
2023/03/27 01:20:14;;;;;;;16.40;2.93;;;3.00;99.90;;;;;;5082943;28;20713;-72
2023/03/27 01:23:02;;;;;;;9.33;2.23;;;3.00;99.90;;;;;;5084925;28;20234;-73
2023/03/27 01:25:38;;;;;;;10.17;4.17;;;2.90;99.90;;;;;;5088416;28;20324;-72
2023/03/27 01:28:27;;;;;;;9.53;2.47;;;2.90;99.90;;;;;;5085249;28;20209;-71
2023/03/27 01:31:32;;;;;;;8.90;2.20;;;2.90;99.90;;;;;;5083059;28;20210;-73
2023/03/27 01:34:20;;;;;;;9.43;2.53;;;2.90;99.90;;;;;;5086960;28;20257;-72
2023/03/27 01:37:05;;;;;;;6.67;2.27;;;2.90;99.90;;;;;;5085081;28;20241;-74
2023/03/27 01:39:33;;;;;;;4.97;2.00;;;2.90;99.90;;;;;;5081033;28;20241;-72
2023/03/27 01:42:05;;;;;;;7.53;2.23;;;2.90;99.90;;;;;;5078994;28;20682;-72
2023/03/27 01:44:58;;;;;;;7.97;2.07;;;2.90;99.90;;;;;;5086098;28;20233;-74
2023/03/27 01:47:32;;;;;;;8.07;2.33;;;2.90;99.90;;;;;;5083751;28;20256;-72
2023/03/27 01:50:27;;;;;;;6.87;2.07;;;2.90;99.90;;;;;;5081630;28;20635;-73
2023/03/27 01:53:00;;;;;;;8.77;2.40;;;2.90;99.90;;;;;;5083036;28;20686;-72
2023/03/27 01:55:35;;;;;;;7.77;2.00;;;2.90;99.90;;;;;;5083363;28;20203;-73
2023/03/27 01:58:16;;;;;;;10.50;2.50;;;2.90;99.90;;;;;;5082559;28;20208;-72
2023/03/27 02:00:46;;;;;;;4.50;1.83;;;2.90;99.90;;;;;;5088629;28;20228;-74
2023/03/27 02:03:33;;;;;;;9.60;2.30;;;2.90;99.90;;;;;;5081687;28;20243;-71
2023/03/27 02:06:23;;;;;;;11.50;2.40;;;2.90;99.90;;;;;;5082455;28;20329;-72
2023/03/27 02:08:59;;;;;;;7.00;2.40;;;2.90;99.90;;;;;;5087380;28;20229;-74
2023/03/27 02:11:32;;;;;;;6.07;2.20;;;2.90;99.90;;;;;;5085535;28;20288;-72
2023/03/27 02:14:05;;;;;;;14.57;2.20;;;3.00;99.90;;;;;;5089975;28;20201;-71
2023/03/27 02:16:34;;;;;;;6.57;2.10;;;2.90;99.90;;;;;;5080901;28;20422;-71
2023/03/27 02:19:08;;;;;;;6.67;2.00;;;3.00;99.90;;;;;;5087740;28;20220;-72
2023/03/27 02:21:36;;;;;;;9.33;1.93;;;3.00;99.90;;;;;;5081569;28;20229;-73
2023/03/27 02:24:04;;;;;;;7.80;2.17;;;3.00;99.90;;;;;;5080482;28;20647;-72
2023/03/27 02:26:32;;;;;;;11.17;2.30;;;3.00;99.90;;;;;;5084579;28;20577;-72
2023/03/27 02:29:26;;;;;;;8.63;2.33;;;3.00;99.90;;;;;;5085119;28;20211;-71
2023/03/27 02:32:16;;;;;;;5.23;1.97;;;3.00;99.90;;;;;;5083381;28;20299;-72
2023/03/27 02:34:48;;;;;;;11.73;2.37;;;3.00;99.90;;;;;;5082489;28;20217;-71
2023/03/27 02:37:29;;;;;;;7.87;2.10;;;2.90;99.90;;;;;;5081156;28;20202;-73
2023/03/27 02:40:26;;;;;;;7.73;2.27;;;2.90;99.90;;;;;;5079594;28;20624;-72
2023/03/27 02:43:00;;;;;;;11.63;2.70;;;2.80;99.90;;;;;;5081993;28;20215;-71
2023/03/27 02:45:35;;;;;;;7.13;2.00;;;2.80;99.90;;;;;;5081110;28;20261;-72
2023/03/27 02:48:09;;;;;;;7.83;2.40;;;2.70;99.90;;;;;;5088177;28;20224;-71
2023/03/27 02:51:11;;;;;;;5.37;1.73;;;2.70;99.90;;;;;;5080069;28;20213;-72
2023/03/27 02:53:44;;;;;;;8.17;2.27;;;2.70;99.90;;;;;;5081447;28;20736;-72
2023/03/27 02:56:13;;;;;;;6.70;2.80;;;2.60;99.90;;;;;;5081078;28;20254;-74
2023/03/27 02:58:56;;;;;;;6.67;2.03;;;2.60;99.90;;;;;;5080056;28;20212;-72
2023/03/27 03:01:29;;;;;;;7.13;2.30;;;2.60;99.90;;;;;;5080020;28;20467;-72
2023/03/27 03:04:00;;;;;;;9.13;2.23;;;2.60;99.90;;;;;;5080841;28;20331;-73
2023/03/27 03:06:29;;;;;;;4.83;2.37;;;2.50;99.90;;;;;;5083550;28;20291;-73
2023/03/27 03:09:04;;;;;;;7.23;2.50;;;2.50;99.90;;;;;;5062536;28;20205;-74
2023/03/27 03:11:34;;;;;;;8.73;2.53;;;2.50;99.90;;;;;;5084944;28;20748;-72
2023/03/27 03:14:00;;;;;;;8.53;2.17;;;2.50;99.90;;;;;;5086786;28;20206;-72
2023/03/27 03:16:28;;;;;;;4.13;2.10;;;2.50;99.90;;;;;;5085308;28;20258;-72
2023/03/27 03:18:56;;;;;;;8.40;2.10;;;2.50;99.90;;;;;;5080783;28;20689;-72
2023/03/27 03:21:23;;;;;;;5.67;2.10;;;2.50;99.90;;;;;;5080403;28;20218;-72
2023/03/27 03:23:50;;;;;;;3.57;1.90;;;2.50;99.90;;;;;;5081364;28;20253;-74
2023/03/27 03:26:25;;;;;;;5.13;2.53;;;2.60;99.90;;;;;;5086827;28;20298;-73
2023/03/27 03:28:52;;;;;;;6.00;1.83;;;2.70;99.90;;;;;;5083230;28;20208;-72
2023/03/27 03:31:41;;;;;;;7.10;1.73;;;2.70;99.90;;;;;;5079918;28;20227;-71
2023/03/27 03:34:14;;;;;;;3.90;2.20;;;2.80;99.90;;;;;;5065218;28;20221;-72
2023/03/27 03:36:43;;;;;;;6.93;1.70;;;2.90;99.90;;;;;;5080726;28;20201;-72
2023/03/27 03:39:11;;;;;;;6.47;1.83;;;2.90;99.90;;;;;;5078693;28;20300;-72
2023/03/27 03:41:38;;;;;;;6.00;2.17;;;3.00;99.90;;;;;;5080202;28;20211;-72
2023/03/27 03:44:05;;;;;;;3.13;1.60;;;2.90;99.90;;;;;;5081800;28;20207;-72
2023/03/27 03:46:32;;;;;;;4.20;1.90;;;2.90;99.90;;;;;;5082859;28;20288;-73
2023/03/27 03:48:59;;;;;;;6.93;2.47;;;2.80;99.90;;;;;;5082807;28;20225;-72
2023/03/27 03:51:27;;;;;;;3.23;1.70;;;2.80;99.90;;;;;;5079177;28;20298;-74
2023/03/27 03:53:53;;;;;;;5.37;1.77;;;2.90;99.90;;;;;;5085487;28;20286;-72
2023/03/27 03:56:20;;;;;;;6.13;1.50;;;2.80;99.90;;;;;;5083501;28;20209;-72
2023/03/27 03:58:47;;;;;;;7.43;1.80;;;2.80;99.90;;;;;;5081261;28;20298;-72
2023/03/27 04:01:14;;;;;;;9.47;2.07;;;2.80;99.90;;;;;;5063625;28;20208;-74
2023/03/27 04:03:40;;;;;;;7.10;1.73;;;2.80;99.90;;;;;;5081418;28;20233;-73
2023/03/27 04:06:09;;;;;;;10.50;1.90;;;2.80;99.90;;;;;;5080140;28;20587;-72
2023/03/27 04:08:36;;;;;;;4.63;1.87;;;2.70;99.90;;;;;;5079687;28;20216;-73
2023/03/27 04:11:04;;;;;;;11.00;2.00;;;2.70;99.90;;;;;;5084987;28;20686;-72
2023/03/27 04:13:31;;;;;;;9.33;2.17;;;2.70;99.90;;;;;;5087403;28;20724;-72
2023/03/27 04:16:00;;;;;;;2.47;1.63;;;2.70;99.90;;;;;;5082252;28;20211;-72
2023/03/27 04:18:34;;;;;;;5.77;2.00;;;2.60;99.90;;;;;;5082723;28;20231;-72
2023/03/27 04:21:01;;;;;;;5.97;2.17;;;2.50;99.90;;;;;;5079194;28;20212;-74
2023/03/27 04:23:32;;;;;;;2.93;1.60;;;2.50;99.90;;;;;;5085246;28;20654;-72
2023/03/27 04:26:02;;;;;;;6.23;2.00;;;2.40;99.90;;;;;;5077924;28;20636;-73
2023/03/27 04:28:33;;;;;;;5.70;2.20;;;2.40;99.90;;;;;;5079924;28;20209;-75
2023/03/27 04:31:05;;;;;;;3.47;1.73;;;2.30;99.90;;;;;;5079374;28;20680;-71
2023/03/27 04:33:34;;;;;;;4.40;1.80;;;2.30;99.90;;;;;;5070637;28;20574;-74
2023/03/27 04:36:01;;;;;;;2.83;1.83;;;2.20;99.90;;;;;;5081017;28;20724;-73
2023/03/27 04:38:38;;;;;;;7.47;2.33;;;2.20;99.90;;;;;;5078855;28;20206;-73
2023/03/27 04:41:05;;;;;;;9.03;2.30;;;2.20;99.90;;;;;;5062879;28;20207;-72
2023/03/27 04:43:38;;;;;;;6.03;2.23;;;2.20;99.90;;;;;;5082610;28;20283;-73
2023/03/27 04:46:06;;;;;;;4.03;2.30;;;2.10;99.90;;;;;;5060404;28;20236;-73
2023/03/27 04:48:34;;;;;;;4.33;2.10;;;2.10;99.90;;;;;;5081298;28;20212;-74
2023/03/27 04:51:00;;;;;;;7.23;2.30;;;2.20;99.90;;;;;;5082182;28;20207;-72
2023/03/27 04:53:29;;;;;;;8.93;2.10;;;2.20;99.90;;;;;;5062710;28;20624;-72
2023/03/27 04:55:56;;;;;;;1.83;1.67;;;2.20;99.90;;;;;;5081804;28;20209;-72
2023/03/27 04:58:24;;;;;;;4.97;2.30;;;2.20;99.90;;;;;;5078415;28;20206;-73
2023/03/27 05:00:54;;;;;;;6.87;1.83;;;2.30;99.90;;;;;;5081166;28;20217;-73
2023/03/27 05:03:26;;;;;;;8.93;2.30;;;2.30;99.90;;;;;;5078263;28;20257;-72
2023/03/27 05:05:53;;;;;;;9.27;2.33;;;2.30;99.90;;;;;;5079110;28;20238;-74
2023/03/27 05:08:20;;;;;;;11.47;2.20;;;2.30;99.90;;;;;;5061815;28;20662;-72
2023/03/27 05:10:47;;;;;;;7.20;1.93;;;2.30;99.90;;;;;;5086064;28;20225;-71
2023/03/27 05:13:14;;;;;;;6.00;1.93;;;2.40;99.90;;;;;;5063842;28;20202;-72
2023/03/27 05:15:41;;;;;;;5.90;1.97;;;2.40;99.90;;;;;;5078617;28;20201;-72
2023/03/27 05:18:07;;;;;;;2.90;1.70;;;2.50;99.90;;;;;;5079820;28;20345;-74
2023/03/27 05:20:35;;;;;;;4.93;1.60;;;2.60;99.90;;;;;;5083193;28;20288;-73
2023/03/27 05:23:02;;;;;;;3.33;1.60;;;2.40;99.90;;;;;;5081638;28;20255;-73
2023/03/27 05:25:29;;;;;;;4.33;1.97;;;2.40;99.90;;;;;;5077384;28;20697;-74
2023/03/27 05:27:56;;;;;;;11.03;3.23;;;2.30;99.90;;;;;;5082647;28;20229;-74
2023/03/27 05:30:25;;;;;;;3.43;1.60;;;2.30;99.90;;;;;;5081282;28;20541;-73
2023/03/27 05:32:52;;;;;;;2.90;1.60;;;2.30;99.90;;;;;;5081149;28;20235;-73
2023/03/27 05:35:22;;;;;;;2.73;1.30;;;2.20;99.90;;;;;;5079128;28;20631;-74
2023/03/27 05:37:52;;;;;;;5.20;1.60;;;2.20;99.90;;;;;;5084587;28;20290;-73
2023/03/27 05:40:21;;;;;;;4.50;1.47;;;2.20;99.90;;;;;;5080168;28;20205;-73
2023/03/27 05:42:50;;;;;;;2.03;1.70;;;2.10;99.90;;;;;;5078249;28;20208;-73
2023/03/27 05:45:17;;;;;;;3.40;1.90;;;2.10;99.90;;;;;;5079477;28;20315;-73
2023/03/27 05:47:45;;;;;;;3.30;1.93;;;2.10;99.90;;;;;;5080885;28;20226;-75
2023/03/27 05:50:13;;;;;;;4.60;2.00;;;2.10;99.90;;;;;;5078293;28;20583;-74
2023/03/27 05:52:41;;;;;;;5.30;2.07;;;2.10;99.90;;;;;;5081289;28;20245;-72
2023/03/27 05:55:08;;;;;;;6.80;2.40;;;2.10;99.90;;;;;;5084181;28;20188;-73
2023/03/27 05:57:39;;;;;;;7.20;2.53;;;2.10;99.90;;;;;;5084898;28;20206;-74
2023/03/27 06:00:12;;;;;;;4.63;2.07;;;2.10;99.90;;;;;;5064384;28;20320;-72
2023/03/27 06:02:42;;;;;;;5.40;2.40;;;2.10;99.90;;;;;;5085904;28;20284;-73
2023/03/27 06:05:14;;;;;;;6.40;2.80;;;2.10;99.90;;;;;;5085088;28;20762;-73
2023/03/27 06:07:42;;;;;;;5.33;2.67;;;2.10;99.90;;;;;;5083205;28;20622;-75
2023/03/27 06:10:12;;;;;;;7.73;3.10;;;2.10;99.90;;;;;;5085604;28;20286;-74
2023/03/27 06:12:41;;;;;;;7.10;3.43;;;2.10;99.90;;;;;;5079568;28;20196;-73
2023/03/27 06:15:09;;;;;;;7.50;3.37;;;2.10;99.90;;;;;;5085160;28;20687;-73
2023/03/27 06:17:38;;;;;;;9.27;3.37;;;2.20;99.90;;;;;;5083625;28;20588;-75
2023/03/27 06:20:11;;;;;;;9.03;3.60;;;2.30;99.90;;;;;;5084024;28;20205;-74
2023/03/27 06:22:45;;;;;;;8.10;3.20;;;2.50;99.90;;;;;;5083322;28;20211;-73
2023/03/27 06:25:13;;;;;;;5.50;3.10;;;2.60;99.90;;;;;;5076613;28;20686;-74
2023/03/27 06:27:44;;;;;;;7.90;2.70;;;2.70;99.90;;;;;;5084409;28;20714;-74
2023/03/27 06:30:13;;;;;;;8.07;2.53;;;2.80;99.90;;;;;;5082209;28;20216;-74
2023/03/27 06:32:48;;;;;;;4.80;2.57;;;2.90;99.90;;;;;;5083697;28;20297;-73
2023/03/27 06:35:15;;;;;;;13.30;3.00;;;2.90;99.90;;;;;;5080100;28;20294;-74
2023/03/27 06:37:47;;;;;;;5.97;3.07;;;2.90;99.90;;;;;;5084575;28;20581;-75
2023/03/27 06:40:21;;;;;;;7.70;2.67;;;3.00;99.90;;;;;;5076481;28;20561;-73
2023/03/27 06:42:53;;;;;;;6.50;2.53;;;3.00;99.90;;;;;;5084571;28;20304;-74
2023/03/27 06:45:21;;;;;;;6.50;2.40;;;3.20;99.90;;;;;;5079333;28;20243;-74
2023/03/27 06:47:53;;;;;;;11.33;2.57;;;3.30;99.90;;;;;;5082714;28;20580;-74
2023/03/27 06:50:39;;;;;;;7.30;2.23;;;3.40;99.90;;;;;;5083087;28;20203;-74
2023/03/27 06:53:05;;;;;;;7.00;2.37;;;3.40;99.90;;;;;;5086463;28;20204;-75
2023/03/27 06:55:51;;;;;;;6.87;2.53;;;3.50;99.90;;;;;;5084261;28;20213;-75
2023/03/27 06:58:18;;;;;;;10.87;2.60;;;3.60;99.90;;;;;;5080582;28;20211;-74
2023/03/27 07:00:45;;;;;;;7.87;2.60;;;3.90;99.90;;;;;;5086123;28;20345;-74
2023/03/27 07:03:13;;;;;;;10.13;2.60;;;4.30;99.90;;;;;;5082486;28;20240;-73
2023/03/27 07:05:41;;;;;;;4.03;2.63;;;5.10;99.90;;;;;;5080968;28;20700;-75
2023/03/27 07:08:11;;;;;;;8.37;2.33;;;6.00;99.90;;;;;;5086633;28;20256;-73
2023/03/27 07:10:49;;;;;;;6.63;1.80;;;6.50;99.90;;;;;;5067473;28;20293;-73
2023/03/27 07:13:33;;;;;;;5.57;1.83;;;6.50;99.90;;;;;;5084936;28;20220;-72
2023/03/27 07:16:00;;;;;;;4.27;1.50;;;6.70;99.90;;;;;;5079751;28;20208;-74
2023/03/27 07:18:27;;;;;;;4.73;2.00;;;7.20;99.90;;;;;;5083361;28;20226;-75
2023/03/27 07:20:54;;;;;;;7.03;1.77;;;;;;;;;;5083652;28;20203;-73
2023/03/27 07:23:21;;;;;;;6.97;1.73;;;8.80;99.90;;;;;;5063651;28;20601;-72
2023/03/27 07:25:48;;;;;;;3.30;1.30;;;9.60;99.90;;;;;;5079066;28;20684;-73
2023/03/27 07:28:17;;;;;;;3.60;1.43;;;10.20;99.90;;;;;;5089474;28;20261;-73
2023/03/27 07:30:44;;;;;;;5.57;1.47;;;10.80;99.90;;;;;;5078789;28;20205;-72
2023/03/27 07:33:11;;;;;;;5.13;1.80;;;11.20;99.90;;;;;;5086279;28;20220;-72
2023/03/27 07:35:45;;;;;;;6.67;1.57;;;11.50;99.90;;;;;;5081762;28;20211;-74
2023/03/27 07:38:13;;;;;;;4.67;1.70;;;12.00;99.90;;;;;;5084533;28;20231;-74
2023/03/27 07:40:42;;;;;;;6.17;1.57;;;12.30;99.90;;;;;;5080763;28;20660;-73
2023/03/27 07:43:09;;;;;;;5.47;1.60;;;12.60;99.90;;;;;;5079369;28;20204;-74
2023/03/27 07:45:36;;;;;;;3.53;1.40;;;12.80;99.90;;;;;;5086633;28;20251;-73
2023/03/27 07:48:09;;;;;;;6.77;1.73;;;12.90;99.90;;;;;;5081943;28;20692;-73
2023/03/27 07:50:36;;;;;;;6.60;1.93;;;12.80;99.90;;;;;;5081397;28;20269;-73
2023/03/27 07:53:05;;;;;;;6.53;1.83;;;12.80;99.90;;;;;;5079056;28;20421;-73
2023/03/27 07:55:35;;;;;;;4.20;1.88;;;12.90;99.90;;;;;;5083908;28;20215;-73
2023/03/27 07:58:03;;;;;;;5.22;1.70;;;12.90;99.90;;;;;;5080182;28;20224;-72
2023/03/27 08:00:32;;;;;;;5.05;1.73;;;13.00;99.90;;;;;;5096482;28;20244;-72
2023/03/27 08:03:05;;;;;;;4.20;1.67;;;13.10;99.90;;;;;;5069611;28;20717;-73
2023/03/27 08:05:33;;;;;;;3.45;1.27;;;13.20;99.90;;;;;;5080127;28;20634;-72
2023/03/27 08:08:00;;;;;;;5.28;1.52;;;13.40;99.90;;;;;;5082325;28;20713;-73
2023/03/27 08:10:27;;;;;;;8.07;1.95;;;13.50;99.90;;;;;;5076813;28;20203;-73
2023/03/27 08:12:53;;;;;;;6.95;1.50;;;13.30;99.90;;;;;;5084117;28;20317;-75
2023/03/27 08:15:23;;;;;;;4.13;2.10;;;13.10;99.90;;;;;;5078782;28;20235;-72
2023/03/27 08:17:53;;;;;;;11.38;1.45;;;13.00;99.90;;;;;;5078208;28;20270;-72
2023/03/27 08:20:22;;;;;;;8.15;1.77;;;13.20;99.90;;;;;;5082318;28;20212;-73
2023/03/27 08:22:50;;;;;;;4.57;1.77;;;13.40;99.90;;;;;;5082625;28;20247;-73
2023/03/27 08:25:17;;;;;;;6.38;1.73;;;13.50;99.90;;;;;;5078757;28;20242;-73
2023/03/27 08:27:44;;;;;;;6.53;1.65;;;13.40;99.90;;;;;;5081022;28;20232;-73
2023/03/27 08:30:13;;;;;;;4.72;1.50;;;13.20;99.90;;;;;;5067960;28;20212;-72
2023/03/27 08:32:42;;;;;;;5.63;1.80;;;13.20;99.90;;;;;;5061456;28;20232;-72
2023/03/27 08:35:10;;;;;;;8.38;2.10;;;13.20;99.90;;;;;;5063723;28;20204;-73
2023/03/27 08:37:37;;;;;;;8.40;2.17;;;13.20;99.90;;;;;;5079128;28;20204;-71
2023/03/27 08:40:12;;;;;;;2.50;1.20;;;13.10;99.90;;;;;;5081434;28;20287;-72
2023/03/27 08:42:42;;;;;;;6.47;2.20;;;12.90;99.90;;;;;;5078445;28;20342;-73
2023/03/27 08:45:17;;;;;;;4.53;1.67;;;12.40;99.90;;;;;;5085905;28;20283;-74
2023/03/27 08:47:52;;;;;;;8.53;1.70;;;11.50;99.90;;;;;;5086878;28;20317;-72
2023/03/27 08:50:47;;;;;;;3.07;1.40;;;10.60;99.90;;;;;;5080583;28;20210;-73
2023/03/27 08:53:39;;;;;;;5.60;1.23;;;10.00;99.90;;;;;;5080845;28;20204;-72
2023/03/27 08:56:13;;;;;;;4.90;1.47;;;9.90;99.90;;;;;;5074174;28;20212;-72
2023/03/27 08:58:41;;;;;;;2.43;1.07;;;9.90;99.90;;;;;;5083694;28;20265;-73
2023/03/27 09:01:16;;;;;;;4.33;1.13;;;9.70;99.90;;;;;;5081591;28;20196;-72
2023/03/27 09:03:54;;;;;;;7.60;1.63;;;10.00;99.90;;;;;;5076574;28;20708;-72
2023/03/27 09:06:26;;;;;;;3.13;1.30;;;10.20;99.90;;;;;;5079803;28;20235;-72
2023/03/27 09:09:06;;;;;;;3.43;0.87;;;10.50;99.90;;;;;;5084034;28;20652;-72
2023/03/27 09:11:41;;;;;;;1.43;0.70;;;10.10;99.90;;;;;;5083467;28;20189;-72
2023/03/27 09:14:20;;;;;;;1.80;0.70;;;9.20;99.90;;;;;;5087411;28;20225;-73
2023/03/27 09:16:48;;;;;;;2.40;0.80;;;8.40;99.90;;;;;;5075346;28;20211;-72
2023/03/27 09:19:42;;;;;;;1.73;0.90;;;7.70;99.90;;;;;;5079199;28;20230;-72
2023/03/27 09:22:22;;;;;;;2.37;0.80;;;7.10;99.90;;;;;;5083305;28;20264;-72
2023/03/27 09:24:53;;;;;;;5.50;0.97;;;6.80;99.90;;;;;;5084144;28;20576;-71
2023/03/27 09:27:33;;;;;;;3.90;1.00;;;6.70;99.90;;;;;;5081916;28;20412;-73
2023/03/27 09:30:14;;;;;;;1.97;1.10;;;6.50;99.90;;;;;;5082697;28;20192;-73
2023/03/27 09:32:42;;;;;;;5.60;1.00;;;;;;;;;;5083227;28;20215;-71
2023/03/27 09:35:19;;;;;;;2.10;0.90;;;6.50;99.90;;;;;;5087760;28;20207;-72
2023/03/27 09:37:57;;;;;;;2.33;0.90;;;6.50;99.90;;;;;;5079461;28;20291;-73
2023/03/27 09:40:36;;;;;;;5.03;1.30;;;6.60;99.90;;;;;;5069187;28;20204;-71
2023/03/27 09:43:08;;;;;;;2.13;1.00;;;6.90;99.90;;;;;;5082548;28;20200;-72
2023/03/27 09:45:37;;;;;;;3.23;1.00;;;7.30;99.90;;;;;;5082954;28;20201;-71
2023/03/27 09:48:10;;;;;;;4.13;1.37;;;7.70;99.90;;;;;;5087671;28;20293;-71
2023/03/27 09:50:43;;;;;;;3.43;0.90;;;8.00;99.90;;;;;;5080680;28;20283;-72
2023/03/27 09:53:19;;;;;;;2.60;1.10;;;8.20;99.90;;;;;;5086197;28;20210;-72
2023/03/27 09:55:53;;;;;;;3.73;1.07;;;8.50;99.90;;;;;;5084550;28;20206;-72
2023/03/27 09:58:29;;;;;;;4.10;1.10;;;8.70;99.90;;;;;;5066784;28;20215;-73
2023/03/27 10:01:12;;;;;;;4.47;1.43;;;8.90;99.90;;;;;;5082927;28;20205;-72
2023/03/27 10:03:47;;;;;;;3.90;1.30;;;9.00;99.90;;;;;;5088414;28;20310;-72
2023/03/27 10:06:28;;;;;;;4.63;1.20;;;9.20;99.90;;;;;;5088176;28;20217;-72
2023/03/27 10:08:59;;;;;;;4.57;1.23;;;9.20;99.90;;;;;;5084294;28;20203;-73
2023/03/27 10:11:31;;;;;;;4.97;1.10;;;9.20;99.90;;;;;;5089693;28;20299;-72
2023/03/27 10:14:00;;;;;;;5.53;1.20;;;9.30;99.90;;;;;;5081324;28;20212;-72
2023/03/27 10:16:28;;;;;;;8.17;1.30;;;9.30;99.90;;;;;;5091135;28;20192;-71
2023/03/27 10:18:58;;;;;;;4.00;1.20;;;9.40;99.90;;;;;;5087625;28;20315;-73
2023/03/27 10:21:32;;;;;;;4.93;1.73;;;9.70;99.90;;;;;;5079929;28;20585;-72
2023/03/27 10:24:19;;;;;;;5.00;1.30;;;9.70;99.90;;;;;;5079440;28;20203;-72
2023/03/27 10:26:51;;;;;;;8.33;1.80;;;9.70;99.90;;;;;;5084973;28;20744;-72
2023/03/27 10:29:23;;;;;;;5.47;1.33;;;9.40;99.90;;;;;;5081856;28;20624;-73
2023/03/27 10:31:55;;;;;;;3.43;1.43;;;9.00;99.90;;;;;;5085016;28;20209;-72
2023/03/27 10:34:36;;;;;;;3.70;1.00;;;8.60;99.90;;;;;;5081195;28;20219;-71
2023/03/27 10:37:28;;;;;;;3.70;1.20;;;8.40;99.90;;;;;;5066134;28;20194;-71
2023/03/27 10:39:58;;;;;;;4.90;1.43;;;8.40;99.90;;;;;;5085280;28;20253;-70
2023/03/27 10:42:30;;;;;;;5.83;1.40;;;8.50;99.90;;;;;;5084029;28;20269;-70
2023/03/27 10:44:57;;;;;;;2.67;1.20;;;8.50;99.90;;;;;;5090797;28;20673;-71
2023/03/27 10:47:30;;;;;;;3.20;1.20;;;8.70;99.90;;;;;;5084534;28;20235;-72
2023/03/27 10:50:06;;;;;;;6.57;2.13;;;8.90;99.90;;;;;;5085004;28;20516;-71
2023/03/27 10:52:45;;;;;;;4.53;1.53;;;8.70;99.90;;;;;;5066391;28;20212;-71
2023/03/27 10:55:40;;;;;;;4.73;1.67;;;8.60;99.90;;;;;;5085126;28;20206;-72
2023/03/27 10:58:32;;;;;;;4.37;1.20;;;8.00;99.90;;;;;;5083704;28;20240;-73
2023/03/27 11:01:40;;;;;;;4.13;1.97;;;7.20;99.90;;;;;;5083407;28;20245;-71
2023/03/27 11:04:43;;;;;;;5.23;1.30;;;6.20;99.90;;;;;;5008842;28;20702;-73
2023/03/27 11:07:21;;;;;;;7.03;1.40;;;5.70;99.90;;;;;;5008163;28;20262;-72
2023/03/27 11:10:11;;;;;;;7.20;1.73;;;5.40;99.90;;;;;;5071178;28;20225;-72
2023/03/27 11:12:41;;;;;;;5.57;1.70;;;5.20;99.90;;;;;;5090836;28;20204;-72
2023/03/27 11:15:18;;;;;;;4.67;1.83;;;5.20;99.90;;;;;;5074354;28;20203;-72
2023/03/27 11:17:52;;;;;;;6.47;1.50;;;5.20;99.90;;;;;;5083561;28;20306;-72
2023/03/27 11:20:30;;;;;;;6.17;1.50;;;5.20;99.90;;;;;;5080294;28;20279;-71
2023/03/27 11:23:04;;;;;;;6.53;1.60;;;5.20;99.90;;;;;;5086912;28;20236;-72
2023/03/27 11:25:42;;;;;;;5.30;1.50;;;5.40;99.90;;;;;;5083143;28;20690;-71
2023/03/27 11:28:26;;;;;;;3.97;1.50;;;5.60;99.90;;;;;;5090025;28;20268;-72
2023/03/27 11:31:23;;;;;;;6.30;1.57;;;5.90;99.90;;;;;;5090021;28;20678;-71
2023/03/27 11:34:05;;;;;;;3.73;1.23;;;6.20;99.90;;;;;;5084674;28;20223;-71
2023/03/27 11:36:50;;;;;;;3.63;1.30;;;6.50;99.90;;;;;;5071290;28;20660;-72
2023/03/27 11:39:41;;;;;;;2.83;1.20;;;6.70;99.90;;;;;;5082762;28;20294;-71
2023/03/27 11:42:17;;;;;;;4.73;1.30;;;7.00;99.90;;;;;;5087230;28;20256;-71
2023/03/27 11:44:44;;;;;;;4.03;1.07;;;7.20;99.90;;;;;;5083467;28;20228;-71
2023/03/27 11:47:50;;;;;;;4.10;1.50;;;7.40;99.90;;;;;;5078403;28;20262;-72
2023/03/27 11:50:20;;;;;;;1.60;1.10;;;7.60;99.90;;;;;;5063455;28;20198;-71
2023/03/27 11:53:07;;;;;;;5.90;1.30;;;7.80;99.90;;;;;;5083091;28;20600;-73
2023/03/27 11:56:22;;;;;;;8.97;1.37;;;8.00;99.90;;;;;;5085124;28;20203;-73
2023/03/27 11:59:17;;;;;;;5.70;1.30;;;8.20;99.90;;;;;;5075581;28;20204;-71
2023/03/27 12:01:48;;;;;;;5.07;1.00;;;8.40;99.90;;;;;;5085981;28;20192;-72
2023/03/27 12:04:48;;;;;;;4.37;1.10;;;8.40;99.90;;;;;;5079462;28;20240;-71
2023/03/27 12:07:36;;;;;;;4.03;1.10;;;8.30;99.90;;;;;;5086487;28;20230;-71
2023/03/27 12:10:25;;;;;;;4.40;1.10;;;8.10;99.90;;;;;;5067290;28;20214;-72
2023/03/27 12:13:13;;;;;;;4.70;1.20;;;8.00;99.90;;;;;;5086697;28;20227;-72
2023/03/27 12:15:45;;;;;;;5.27;1.40;;;7.90;99.90;;;;;;5086332;28;20634;-71
2023/03/27 12:18:53;;;;;;;4.93;1.60;;;7.90;99.90;;;;;;5085362;28;20262;-71
2023/03/27 12:21:42;;;;;;;7.07;1.20;;;7.80;99.90;;;;;;5079671;28;20207;-71
2023/03/27 12:24:32;;;;;;;5.90;1.53;;;8.00;99.90;;;;;;5089323;28;20295;-71
2023/03/27 12:27:13;;;;;;;7.13;1.20;;;8.30;99.90;;;;;;5084937;28;20639;-73
2023/03/27 12:29:46;;;;;;;4.73;1.27;;;8.50;99.90;;;;;;5082818;28;20290;-73
2023/03/27 12:32:37;;;;;;;11.33;1.60;;;8.70;99.90;;;;;;5082836;28;20518;-71
2023/03/27 12:35:10;;;;;;;6.50;1.30;;;8.80;99.90;;;;;;5085463;28;20200;-71
2023/03/27 12:37:54;;;;;;;4.43;1.00;;;9.10;99.90;;;;;;5077887;28;20241;-71
2023/03/27 12:40:30;;;;;;;3.83;1.50;;;9.20;99.90;;;;;;5080061;28;20214;-74
2023/03/27 12:43:25;;;;;;;3.80;1.50;;;9.50;99.90;;;;;;5080866;28;20209;-71
2023/03/27 12:46:22;;;;;;;4.63;1.10;;;9.70;99.90;;;;;;5054708;28;20202;-71
2023/03/27 12:49:09;;;;;;;2.77;1.27;;;9.70;99.90;;;;;;5077056;28;20238;-70
2023/03/27 12:52:03;;;;;;;4.60;1.30;;;9.70;99.90;;;;;;5079978;28;20211;-71
2023/03/27 12:54:35;;;;;;;9.43;1.67;;;9.70;99.90;;;;;;5081763;28;20242;-72
2023/03/27 12:57:19;;;;;;;4.17;0.90;;;9.80;99.90;;;;;;5076925;28;20219;-73
2023/03/27 13:00:09;;;;;;;2.07;0.90;;;9.70;99.90;;;;;;5078903;28;20687;-71
2023/03/27 13:03:05;;;;;;;2.60;1.67;;;9.60;99.90;;;;;;5071116;28;20224;-74
2023/03/27 13:05:47;;;;;;;4.40;1.20;;;9.60;99.90;;;;;;5079593;28;20198;-71
2023/03/27 13:08:40;;;;;;;2.90;1.00;;;9.50;99.90;;;;;;5081421;28;20262;-71
2023/03/27 13:11:36;;;;;;;4.33;0.90;;;9.60;99.90;;;;;;5085384;28;20214;-71
2023/03/27 13:14:21;;;;;;;1.97;0.80;;;9.60;99.90;;;;;;5087232;28;20207;-71
2023/03/27 13:17:31;;;;;;;3.67;1.13;;;9.50;99.90;;;;;;5084043;28;20306;-70
2023/03/27 13:20:10;;;;;;;4.13;0.90;;;9.50;99.90;;;;;;5082519;28;20729;-72
2023/03/27 13:22:56;;;;;;;3.13;1.27;;;9.40;99.90;;;;;;5083216;28;20378;-73
2023/03/27 13:25:31;;;;;;;4.80;1.33;;;9.40;99.90;;;;;;5082153;28;20819;-71
2023/03/27 13:28:20;;;;;;;3.13;0.93;;;9.30;99.90;;;;;;5094616;28;20225;-72
2023/03/27 13:30:58;;;;;;;7.30;2.23;;;9.20;99.90;;;;;;5083386;28;20239;-71
2023/03/27 13:33:57;;;;;;;6.03;1.20;;;9.10;99.90;;;;;;5086942;28;20218;-70
2023/03/27 13:36:25;;;;;;;3.47;1.00;;;9.00;99.90;;;;;;5081883;28;20210;-71